Lake Forest Park, Washington
Current Conditions -  °F | °C
As of 7:53 PM on Saturday 24 Jan 2015 (Local Time) from KPAE Reporting Station
Overcast Overcast  
Wind Chill: 55°   Ceiling: 1100
Heat Index: 55°   Visibility: 10mi
Dew Point: 52°   Wind: 10mph
Humidity: 89%   Direction: 180°S
Pressure: 30.21"   Gusts: NA
Location:  47.7583°N, 122.295°W
Report Text: KPAE 250353Z 18009KT 10SM OVC011 13/11 A3021 RMK AO2 SLP230 T01280111
Loading
Personal Weather Stations






























Interactive Weather Map New forecast layout! Learn more

10-Day Weather Forecast

Advertisements
Track Severe Weather on mobile